This is the latest recevied weather packets stored in our database for station/object KD7AWQ. If no packets are shown the sender has not sent any weather packets the latest 1 day(s).
| Time | Temp. | Humidity | Pressure | Rain* | Wind** | Luminosity | Snow |
|---|---|---|---|---|---|---|---|
| 1836274633 | 22.78° C | 63% | 1185.5 hPa | 0 mm | 4.92 m/s, 249° | 0 W/m² | - |
| 1836274487 | 22.78° C | 61% | 1185.7 hPa | 0 mm | 6.71 m/s, 277° | 0 W/m² | - |
| 1836274331 | 22.78° C | 64% | 1185.7 hPa | 0 mm | 6.26 m/s, 248° | 0 W/m² | - |
| 1836274185 | 22.78° C | 62% | 1185.6 hPa | 0 mm | 5.36 m/s, 286° | 0 W/m² | - |
| 1836274030 | 22.78° C | 66% | 1185.5 hPa | 0 mm | 6.26 m/s, 250° | 0 W/m² | - |
| 1778080474 | 15.56° C | 37% | 1185.7 hPa | 0 mm | 0.89 m/s, 74° | 499 W/m² | - |
| 1778080172 | 15.56° C | 36% | 1185.6 hPa | 0 mm | 1.34 m/s, 32° | 477 W/m² | - |
| 1778079868 | 15° C | 37% | 1185.7 hPa | 0 mm | 1.34 m/s, 176° | 454 W/m² | - |
| 1778079565 | 14.44° C | 38% | 1185.4 hPa | 0 mm | 0.89 m/s, 180° | 431 W/m² | - |
| 1778079261 | 14.44° C | 38% | 1185.3 hPa | 0 mm | 2.68 m/s, 167° | 201 W/m² | - |
| 1778078959 | 14.44° C | 39% | 1185.4 hPa | 0 mm | 2.68 m/s, 158° | 60 W/m² | - |
| 1778078655 | 14.44° C | 40% | 1185.3 hPa | 0 mm | 1.34 m/s, 125° | 366 W/m² | - |
| 1778078354 | 14.44° C | 39% | 1185.3 hPa | 0 mm | 1.34 m/s, 122° | 360 W/m² | - |
| 1778078050 | 13.89° C | 40% | 1185.3 hPa | 0 mm | 3.13 m/s, 131° | 323 W/m² | - |
| 1778077749 | 14.44° C | 40% | 1185.5 hPa | 0 mm | 3.13 m/s, 150° | 266 W/m² | - |
| 1778077446 | 14.44° C | 40% | 1185.3 hPa | 0 mm | 1.34 m/s, 101° | 277 W/m² | - |
| 1778077144 | 14.44° C | 41% | 1185.4 hPa | 0 mm | 1.34 m/s, 132° | 256 W/m² | - |
| 1778076842 | 13.89° C | 41% | 1185.7 hPa | 0 mm | 1.79 m/s, 128° | 236 W/m² | - |
| 1778076540 | 14.44° C | 41% | 1185.4 hPa | 0 mm | 2.24 m/s, 143° | 214 W/m² | - |
| 1778076236 | 14.44° C | 37% | 1185.3 hPa | 0 mm | 0.45 m/s, 47° | 193 W/m² | - |
| 1778075934 | 14.44° C | 39% | 1185 hPa | 0 mm | 0.45 m/s, 39° | 173 W/m² | - |
| 1778075630 | 13.89° C | 39% | 1185.3 hPa | 0 mm | 0 m/s | 156 W/m² | - |
| 1778075326 | 13.89° C | 40% | 1185.3 hPa | 0 mm | 0.89 m/s, 10° | 138 W/m² | - |
| 1778075023 | 13.33° C | 41% | 1184.9 hPa | 0 mm | 0.89 m/s, 351° | 48 W/m² | - |
| 1778074720 | 13.33° C | 43% | 1185.2 hPa | 0 mm | 1.34 m/s, 329° | 105 W/m² | - |
* Rain latest hour (hover to see other rain measurements)
** Current wind speed in m/s (hover to see current wind gust speed)